sensor_id;sensor_type;location;lat;lon;timestamp;temperature;humidity
55016;DHT22;40919;43.236;21.590;2023-06-14T00:01:45;435.30;2355.20
55016;DHT22;40919;43.236;21.590;2023-06-14T00:04:12;435.30;2355.20
55016;DHT22;40919;43.236;21.590;2023-06-14T00:06:38;435.40;2355.20
55016;DHT22;40919;43.236;21.590;2023-06-14T00:09:04;435.50;2355.20
55016;DHT22;40919;43.236;21.590;2023-06-14T00:11:33;435.60;2355.20
55016;DHT22;40919;43.236;21.590;2023-06-14T00:13:59;435.60;2355.20
55016;DHT22;40919;43.236;21.590;2023-06-14T00:16:25;435.50;2355.20
55016;DHT22;40919;43.236;21.590;2023-06-14T00:18:51;435.50;2355.20
55016;DHT22;40919;43.236;21.590;2023-06-14T00:21:17;435.30;2355.20
55016;DHT22;40919;43.236;21.590;2023-06-14T00:23:43;410.40;2355.20
55016;DHT22;40919;43.236;21.590;2023-06-14T00:26:09;435.20;2355.20
55016;DHT22;40919;43.236;21.590;2023-06-14T00:28:35;435.30;2355.20
55016;DHT22;40919;43.236;21.590;2023-06-14T00:31:00;435.30;2355.20
55016;DHT22;40919;43.236;21.590;2023-06-14T00:33:26;435.40;2355.20
55016;DHT22;40919;43.236;21.590;2023-06-14T00:35:52;435.40;2355.20
55016;DHT22;40919;43.236;21.590;2023-06-14T00:38:20;435.40;2355.20
55016;DHT22;40919;43.236;21.590;2023-06-14T00:40:46;435.40;2355.20
55016;DHT22;40919;43.236;21.590;2023-06-14T00:43:12;435.30;2355.20
55016;DHT22;40919;43.236;21.590;2023-06-14T00:45:38;435.30;2355.20
55016;DHT22;40919;43.236;21.590;2023-06-14T00:48:05;435.30;2355.20
55016;DHT22;40919;43.236;21.590;2023-06-14T00:50:32;435.30;2355.20
55016;DHT22;40919;43.236;21.590;2023-06-14T00:52:59;435.40;2355.20
55016;DHT22;40919;43.236;21.590;2023-06-14T00:55:27;435.40;2355.20
55016;DHT22;40919;43.236;21.590;2023-06-14T00:57:54;435.40;2355.20
55016;DHT22;40919;43.236;21.590;2023-06-14T01:00:20;435.40;2355.20
55016;DHT22;40919;43.236;21.590;2023-06-14T01:02:46;435.50;2355.20
55016;DHT22;40919;43.236;21.590;2023-06-14T01:05:14;435.50;2355.20
55016;DHT22;40919;43.236;21.590;2023-06-14T01:13:05;435.50;2355.20
55016;DHT22;40919;43.236;21.590;2023-06-14T01:15:33;435.50;2355.20
55016;DHT22;40919;43.236;21.590;2023-06-14T01:17:59;435.60;2073.60
55016;DHT22;40919;43.236;21.590;2023-06-14T01:20:37;435.60;2355.20
55016;DHT22;40919;43.236;21.590;2023-06-14T01:23:03;435.60;2355.20
55016;DHT22;40919;43.236;21.590;2023-06-14T01:25:29;435.70;2355.20
55016;DHT22;40919;43.236;21.590;2023-06-14T01:28:04;435.70;2355.20
55016;DHT22;40919;43.236;21.590;2023-06-14T01:30:39;435.80;2355.20
55016;DHT22;40919;43.236;21.590;2023-06-14T01:33:14;435.80;2355.20
55016;DHT22;40919;43.236;21.590;2023-06-14T01:35:46;435.70;2355.20
55016;DHT22;40919;43.236;21.590;2023-06-14T01:38:13;435.70;2355.20
55016;DHT22;40919;43.236;21.590;2023-06-14T01:40:40;435.80;2355.20
55016;DHT22;40919;43.236;21.590;2023-06-14T01:43:08;435.70;2355.20
55016;DHT22;40919;43.236;21.590;2023-06-14T01:45:34;435.60;2355.20
55016;DHT22;40919;43.236;21.590;2023-06-14T01:48:02;435.30;2355.20
55016;DHT22;40919;43.236;21.590;2023-06-14T01:50:30;435.30;2355.20
55016;DHT22;40919;43.236;21.590;2023-06-14T01:52:56;435.40;2355.20
55016;DHT22;40919;43.236;21.590;2023-06-14T01:55:22;435.50;2355.20
55016;DHT22;40919;43.236;21.590;2023-06-14T01:57:48;435.60;2355.20
55016;DHT22;40919;43.236;21.590;2023-06-14T02:00:14;435.30;2355.20
55016;DHT22;40919;43.236;21.590;2023-06-14T02:02:41;435.80;2355.20
55016;DHT22;40919;43.236;21.590;2023-06-14T02:05:07;435.30;2355.20
55016;DHT22;40919;43.236;21.590;2023-06-14T02:07:34;435.30;2355.20
55016;DHT22;40919;43.236;21.590;2023-06-14T02:10:00;435.30;2355.20
55016;DHT22;40919;43.236;21.590;2023-06-14T02:12:26;435.40;2355.20
55016;DHT22;40919;43.236;21.590;2023-06-14T02:14:51;435.40;2355.20
55016;DHT22;40919;43.236;21.590;2023-06-14T02:17:17;435.50;2355.20
55016;DHT22;40919;43.236;21.590;2023-06-14T02:19:43;435.50;2355.20
55016;DHT22;40919;43.236;21.590;2023-06-14T02:22:09;435.50;2355.20
55016;DHT22;40919;43.236;21.590;2023-06-14T02:24:35;435.50;2355.20
55016;DHT22;40919;43.236;21.590;2023-06-14T02:27:01;435.80;2176.00
55016;DHT22;40919;43.236;21.590;2023-06-14T02:29:27;435.60;2355.20
55016;DHT22;40919;43.236;21.590;2023-06-14T02:31:53;435.30;2355.20
55016;DHT22;40919;43.236;21.590;2023-06-14T02:34:19;435.30;2278.40
55016;DHT22;40919;43.236;21.590;2023-06-14T02:36:46;435.30;2355.20
55016;DHT22;40919;43.236;21.590;2023-06-14T02:39:13;435.30;2355.20
55016;DHT22;40919;43.236;21.590;2023-06-14T02:41:39;435.40;2355.20
55016;DHT22;40919;43.236;21.590;2023-06-14T02:44:06;435.50;2227.20
55016;DHT22;40919;43.236;21.590;2023-06-14T02:46:32;435.50;2150.40
55016;DHT22;40919;43.236;21.590;2023-06-14T02:48:58;435.50;2099.20
55016;DHT22;40919;43.236;21.590;2023-06-14T02:51:24;435.50;2355.20
55016;DHT22;40919;43.236;21.590;2023-06-14T02:53:50;435.60;2355.20
55016;DHT22;40919;43.236;21.590;2023-06-14T02:56:16;435.60;2355.20
55016;DHT22;40919;43.236;21.590;2023-06-14T02:58:43;435.60;2355.20
55016;DHT22;40919;43.236;21.590;2023-06-14T03:01:09;435.60;2201.60
55016;DHT22;40919;43.236;21.590;2023-06-14T03:03:38;435.60;2355.20
55016;DHT22;40919;43.236;21.590;2023-06-14T03:06:03;435.60;2355.20
55016;DHT22;40919;43.236;21.590;2023-06-14T03:08:33;435.60;2355.20
55016;DHT22;40919;43.236;21.590;2023-06-14T03:11:04;435.60;2355.20
55016;DHT22;40919;43.236;21.590;2023-06-14T03:13:37;435.60;2355.20
55016;DHT22;40919;43.236;21.590;2023-06-14T03:16:04;435.60;2176.00
55016;DHT22;40919;43.236;21.590;2023-06-14T03:18:30;435.70;2355.20
55016;DHT22;40919;43.236;21.590;2023-06-14T03:21:01;435.60;2355.20
55016;DHT22;40919;43.236;21.590;2023-06-14T03:23:28;435.70;2355.20
55016;DHT22;40919;43.236;21.590;2023-06-14T03:25:53;435.80;1971.20
55016;DHT22;40919;43.236;21.590;2023-06-14T03:28:19;435.70;2355.20
55016;DHT22;40919;43.236;21.590;2023-06-14T03:30:45;435.90;2176.00
55016;DHT22;40919;43.236;21.590;2023-06-14T03:33:11;435.60;2355.20
55016;DHT22;40919;43.236;21.590;2023-06-14T03:35:37;435.60;2355.20
55016;DHT22;40919;43.236;21.590;2023-06-14T03:38:03;435.60;2201.60
55016;DHT22;40919;43.236;21.590;2023-06-14T03:40:29;435.60;2355.20
55016;DHT22;40919;43.236;21.590;2023-06-14T03:42:55;435.60;2355.20
55016;DHT22;40919;43.236;21.590;2023-06-14T03:45:21;435.50;2355.20
55016;DHT22;40919;43.236;21.590;2023-06-14T03:47:47;436.10;2355.20
55016;DHT22;40919;43.236;21.590;2023-06-14T03:50:13;435.70;2355.20
55016;DHT22;40919;43.236;21.590;2023-06-14T03:52:39;435.60;2355.20
55016;DHT22;40919;43.236;21.590;2023-06-14T03:55:08;435.60;2355.20
55016;DHT22;40919;43.236;21.590;2023-06-14T03:57:34;435.70;2355.20
55016;DHT22;40919;43.236;21.590;2023-06-14T04:00:00;435.60;2355.20
55016;DHT22;40919;43.236;21.590;2023-06-14T04:02:25;435.60;2355.20
55016;DHT22;40919;43.236;21.590;2023-06-14T04:04:54;435.50;2355.20
55016;DHT22;40919;43.236;21.590;2023-06-14T04:07:20;435.60;2355.20
55016;DHT22;40919;43.236;21.590;2023-06-14T04:09:46;435.70;2355.20
55016;DHT22;40919;43.236;21.590;2023-06-14T04:12:12;435.70;2355.20
55016;DHT22;40919;43.236;21.590;2023-06-14T04:14:39;435.60;2355.20
55016;DHT22;40919;43.236;21.590;2023-06-14T04:17:05;435.50;2355.20
55016;DHT22;40919;43.236;21.590;2023-06-14T04:19:31;435.50;2355.20
55016;DHT22;40919;43.236;21.590;2023-06-14T04:22:01;435.60;2355.20
55016;DHT22;40919;43.236;21.590;2023-06-14T04:24:28;435.60;2355.20
55016;DHT22;40919;43.236;21.590;2023-06-14T04:27:00;435.70;2355.20
55016;DHT22;40919;43.236;21.590;2023-06-14T04:29:27;435.80;2355.20
55016;DHT22;40919;43.236;21.590;2023-06-14T04:31:55;435.40;2355.20
55016;DHT22;40919;43.236;21.590;2023-06-14T04:34:26;435.80;2355.20
55016;DHT22;40919;43.236;21.590;2023-06-14T04:36:57;435.70;2355.20
55016;DHT22;40919;43.236;21.590;2023-06-14T04:39:25;435.80;2355.20
55016;DHT22;40919;43.236;21.590;2023-06-14T04:41:51;435.90;2355.20
55016;DHT22;40919;43.236;21.590;2023-06-14T04:44:19;435.80;2355.20
55016;DHT22;40919;43.236;21.590;2023-06-14T04:46:48;435.90;2355.20
55016;DHT22;40919;43.236;21.590;2023-06-14T04:49:18;435.90;2355.20
55016;DHT22;40919;43.236;21.590;2023-06-14T04:51:44;435.80;2355.20
55016;DHT22;40919;43.236;21.590;2023-06-14T04:54:11;435.80;2355.20
55016;DHT22;40919;43.236;21.590;2023-06-14T04:56:43;435.80;2355.20
55016;DHT22;40919;43.236;21.590;2023-06-14T04:59:09;435.90;2355.20
55016;DHT22;40919;43.236;21.590;2023-06-14T05:01:37;435.90;2355.20
55016;DHT22;40919;43.236;21.590;2023-06-14T05:04:03;436.10;2355.20
55016;DHT22;40919;43.236;21.590;2023-06-14T05:06:30;436.10;2355.20
55016;DHT22;40919;43.236;21.590;2023-06-14T05:08:56;436.10;2355.20
55016;DHT22;40919;43.236;21.590;2023-06-14T05:11:22;460.80;2380.80
55016;DHT22;40919;43.236;21.590;2023-06-14T05:13:52;460.80;2380.80
55016;DHT22;40919;43.236;21.590;2023-06-14T05:16:18;460.80;2380.80
55016;DHT22;40919;43.236;21.590;2023-06-14T05:18:45;460.80;2201.60
55016;DHT22;40919;43.236;21.590;2023-06-14T05:21:13;460.80;2304.00
55016;DHT22;40919;43.236;21.590;2023-06-14T05:23:38;460.80;2380.80
55016;DHT22;40919;43.236;21.590;2023-06-14T05:26:04;460.80;2380.80
55016;DHT22;40919;43.236;21.590;2023-06-14T05:28:32;460.90;1996.80
55016;DHT22;40919;43.236;21.590;2023-06-14T05:30:57;461.10;2380.80
55016;DHT22;40919;43.236;21.590;2023-06-14T05:33:23;461.10;2380.80
55016;DHT22;40919;43.236;21.590;2023-06-14T05:35:49;461.10;2380.80
55016;DHT22;40919;43.236;21.590;2023-06-14T05:38:15;461.20;2380.80
55016;DHT22;40919;43.236;21.590;2023-06-14T05:40:41;461.30;2380.80
55016;DHT22;40919;43.236;21.590;2023-06-14T05:43:07;461.30;2380.80
55016;DHT22;40919;43.236;21.590;2023-06-14T05:45:32;461.20;2380.80
55016;DHT22;40919;43.236;21.590;2023-06-14T05:47:58;461.30;2380.80
55016;DHT22;40919;43.236;21.590;2023-06-14T05:50:24;461.40;2380.80
55016;DHT22;40919;43.236;21.590;2023-06-14T05:52:50;461.50;2380.80
55016;DHT22;40919;43.236;21.590;2023-06-14T05:55:17;461.60;2380.80
55016;DHT22;40919;43.236;21.590;2023-06-14T05:57:43;461.70;2380.80
55016;DHT22;40919;43.236;21.590;2023-06-14T06:00:09;461.70;2380.80
55016;DHT22;40919;43.236;21.590;2023-06-14T06:02:36;486.40;2380.80
55016;DHT22;40919;43.236;21.590;2023-06-14T06:05:02;486.50;2380.80
55016;DHT22;40919;43.236;21.590;2023-06-14T06:07:28;486.70;2380.80
55016;DHT22;40919;43.236;21.590;2023-06-14T06:09:54;486.70;2380.80
55016;DHT22;40919;43.236;21.590;2023-06-14T06:12:20;486.80;2380.80
55016;DHT22;40919;43.236;21.590;2023-06-14T06:14:45;487.00;2380.80
55016;DHT22;40919;43.236;21.590;2023-06-14T06:17:11;487.10;2380.80
55016;DHT22;40919;43.236;21.590;2023-06-14T06:19:37;487.20;2380.80
55016;DHT22;40919;43.236;21.590;2023-06-14T06:22:03;487.20;2380.80
55016;DHT22;40919;43.236;21.590;2023-06-14T06:24:31;487.00;2380.80
55016;DHT22;40919;43.236;21.590;2023-06-14T06:26:57;487.20;2380.80
55016;DHT22;40919;43.236;21.590;2023-06-14T06:29:23;487.30;2380.80
55016;DHT22;40919;43.236;21.590;2023-06-14T06:31:49;512.00;2380.80
55016;DHT22;40919;43.236;21.590;2023-06-14T06:34:15;487.30;2380.80
55016;DHT22;40919;43.236;21.590;2023-06-14T06:36:40;512.00;2380.80
55016;DHT22;40919;43.236;21.590;2023-06-14T06:39:07;512.00;2380.80
55016;DHT22;40919;43.236;21.590;2023-06-14T06:41:39;512.20;2380.80
55016;DHT22;40919;43.236;21.590;2023-06-14T06:44:08;512.40;2380.80
55016;DHT22;40919;43.236;21.590;2023-06-14T06:46:36;512.70;2380.80
55016;DHT22;40919;43.236;21.590;2023-06-14T06:49:09;512.80;2380.80
55016;DHT22;40919;43.236;21.590;2023-06-14T06:51:40;512.80;2380.80
55016;DHT22;40919;43.236;21.590;2023-06-14T06:54:07;512.90;2380.80
55016;DHT22;40919;43.236;21.590;2023-06-14T06:56:34;537.60;2406.40
55016;DHT22;40919;43.236;21.590;2023-06-14T06:58:59;537.80;2406.40
55016;DHT22;40919;43.236;21.590;2023-06-14T07:01:25;537.90;2406.40
55016;DHT22;40919;43.236;21.590;2023-06-14T07:03:51;537.90;2406.40
55016;DHT22;40919;43.236;21.590;2023-06-14T07:06:17;537.70;2406.40
55016;DHT22;40919;43.236;21.590;2023-06-14T07:08:44;537.70;2406.40
55016;DHT22;40919;43.236;21.590;2023-06-14T07:11:11;537.90;2406.40
55016;DHT22;40919;43.236;21.590;2023-06-14T07:13:36;538.00;2406.40
55016;DHT22;40919;43.236;21.590;2023-06-14T07:16:04;538.20;2406.40
55016;DHT22;40919;43.236;21.590;2023-06-14T07:18:30;538.30;2406.40
55016;DHT22;40919;43.236;21.590;2023-06-14T07:20:56;538.50;2406.40
55016;DHT22;40919;43.236;21.590;2023-06-14T07:23:23;538.50;2406.40
55016;DHT22;40919;43.236;21.590;2023-06-14T07:25:49;538.10;2406.40
55016;DHT22;40919;43.236;21.590;2023-06-14T07:28:16;538.20;2406.40
55016;DHT22;40919;43.236;21.590;2023-06-14T07:30:42;538.40;2406.40
55016;DHT22;40919;43.236;21.590;2023-06-14T07:33:07;563.30;2432.00
55016;DHT22;40919;43.236;21.590;2023-06-14T07:35:34;563.40;2432.00
55016;DHT22;40919;43.236;21.590;2023-06-14T07:38:00;563.30;2432.00
55016;DHT22;40919;43.236;21.590;2023-06-14T07:40:25;563.40;2432.00
55016;DHT22;40919;43.236;21.590;2023-06-14T07:42:51;563.70;2432.00
55016;DHT22;40919;43.236;21.590;2023-06-14T07:45:19;563.70;2432.00
55016;DHT22;40919;43.236;21.590;2023-06-14T07:47:45;563.90;2432.00
55016;DHT22;40919;43.236;21.590;2023-06-14T07:50:11;563.90;2432.00
55016;DHT22;40919;43.236;21.590;2023-06-14T07:52:38;588.80;2432.00
55016;DHT22;40919;43.236;21.590;2023-06-14T07:55:04;588.90;2432.00
55016;DHT22;40919;43.236;21.590;2023-06-14T07:57:30;589.10;2432.00
55016;DHT22;40919;43.236;21.590;2023-06-14T07:59:56;589.30;2432.00
55016;DHT22;40919;43.236;21.590;2023-06-14T08:02:22;589.10;2432.00
55016;DHT22;40919;43.236;21.590;2023-06-14T08:04:48;588.80;2432.00
55016;DHT22;40919;43.236;21.590;2023-06-14T08:07:14;564.10;2432.00
55016;DHT22;40919;43.236;21.590;2023-06-14T08:09:40;588.80;2432.00
55016;DHT22;40919;43.236;21.590;2023-06-14T08:12:07;589.30;2432.00
55016;DHT22;40919;43.236;21.590;2023-06-14T08:14:35;589.30;2432.00
55016;DHT22;40919;43.236;21.590;2023-06-14T08:17:00;589.30;2432.00
55016;DHT22;40919;43.236;21.590;2023-06-14T08:19:26;589.40;2432.00
55016;DHT22;40919;43.236;21.590;2023-06-14T08:21:52;589.30;2432.00
55016;DHT22;40919;43.236;21.590;2023-06-14T08:24:21;589.00;2432.00
55016;DHT22;40919;43.236;21.590;2023-06-14T08:26:50;589.00;2432.00
55016;DHT22;40919;43.236;21.590;2023-06-14T08:29:16;589.40;2432.00
55016;DHT22;40919;43.236;21.590;2023-06-14T08:31:42;589.50;2432.00
55016;DHT22;40919;43.236;21.590;2023-06-14T08:34:07;589.30;2432.00
55016;DHT22;40919;43.236;21.590;2023-06-14T08:36:35;588.90;2432.00
55016;DHT22;40919;43.236;21.590;2023-06-14T08:39:01;588.80;2432.00
55016;DHT22;40919;43.236;21.590;2023-06-14T08:41:28;589.00;2432.00
55016;DHT22;40919;43.236;21.590;2023-06-14T08:43:55;589.00;2432.00
55016;DHT22;40919;43.236;21.590;2023-06-14T08:46:21;589.20;2432.00
55016;DHT22;40919;43.236;21.590;2023-06-14T08:48:52;589.60;2432.00
55016;DHT22;40919;43.236;21.590;2023-06-14T08:51:22;614.40;2432.00
55016;DHT22;40919;43.236;21.590;2023-06-14T08:53:55;614.60;2432.00
55016;DHT22;40919;43.236;21.590;2023-06-14T08:56:28;614.60;2432.00
55016;DHT22;40919;43.236;21.590;2023-06-14T08:58:55;614.60;2432.00
55016;DHT22;40919;43.236;21.590;2023-06-14T09:01:22;614.60;2432.00
55016;DHT22;40919;43.236;21.590;2023-06-14T09:03:50;614.50;2432.00
55016;DHT22;40919;43.236;21.590;2023-06-14T09:06:17;614.40;2432.00
55016;DHT22;40919;43.236;21.590;2023-06-14T09:08:45;614.50;2432.00
55016;DHT22;40919;43.236;21.590;2023-06-14T09:11:16;614.80;2432.00
55016;DHT22;40919;43.236;21.590;2023-06-14T09:13:44;614.80;2432.00
55016;DHT22;40919;43.236;21.590;2023-06-14T09:21:06;615.10;2432.00
55016;DHT22;40919;43.236;21.590;2023-06-14T09:23:37;615.20;2432.00
55016;DHT22;40919;43.236;21.590;2023-06-14T09:26:14;615.10;2432.00
55016;DHT22;40919;43.236;21.590;2023-06-14T09:28:44;614.90;2432.00
55016;DHT22;40919;43.236;21.590;2023-06-14T09:31:11;614.90;2432.00
55016;DHT22;40919;43.236;21.590;2023-06-14T09:33:37;614.90;2432.00
55016;DHT22;40919;43.236;21.590;2023-06-14T09:36:04;614.90;2432.00
55016;DHT22;40919;43.236;21.590;2023-06-14T09:38:35;615.00;2432.00
55016;DHT22;40919;43.236;21.590;2023-06-14T09:41:04;615.00;2432.00
55016;DHT22;40919;43.236;21.590;2023-06-14T09:43:30;615.10;2432.00
55016;DHT22;40919;43.236;21.590;2023-06-14T09:46:00;615.10;2432.00
55016;DHT22;40919;43.236;21.590;2023-06-14T09:48:26;615.10;2432.00
55016;DHT22;40919;43.236;21.590;2023-06-14T09:50:55;615.10;2432.00
55016;DHT22;40919;43.236;21.590;2023-06-14T09:53:24;615.20;2432.00
55016;DHT22;40919;43.236;21.590;2023-06-14T09:55:52;615.30;2432.00
55016;DHT22;40919;43.236;21.590;2023-06-14T09:58:20;615.30;2432.00
55016;DHT22;40919;43.236;21.590;2023-06-14T10:00:50;640.20;2432.00
55016;DHT22;40919;43.236;21.590;2023-06-14T10:03:24;640.40;2432.00
55016;DHT22;40919;43.236;21.590;2023-06-14T10:05:51;640.60;2432.00
55016;DHT22;40919;43.236;21.590;2023-06-14T10:08:27;640.60;2432.00
55016;DHT22;40919;43.236;21.590;2023-06-14T10:10:56;640.50;2432.00
55016;DHT22;40919;43.236;21.590;2023-06-14T10:13:22;640.20;2432.00
55016;DHT22;40919;43.236;21.590;2023-06-14T10:16:15;640.20;2432.00
55016;DHT22;40919;43.236;21.590;2023-06-14T10:18:51;640.10;2432.00
55016;DHT22;40919;43.236;21.590;2023-06-14T10:24:08;640.00;2432.00
55016;DHT22;40919;43.236;21.590;2023-06-14T10:26:57;615.30;2432.00
55016;DHT22;40919;43.236;21.590;2023-06-14T10:29:23;640.00;2432.00
55016;DHT22;40919;43.236;21.590;2023-06-14T10:31:50;640.10;2432.00
55016;DHT22;40919;43.236;21.590;2023-06-14T10:34:29;640.20;2432.00
55016;DHT22;40919;43.236;21.590;2023-06-14T10:37:11;640.70;2432.00
55016;DHT22;40919;43.236;21.590;2023-06-14T10:39:40;665.60;2432.00
55016;DHT22;40919;43.236;21.590;2023-06-14T10:42:06;666.00;2432.00
55016;DHT22;40919;43.236;21.590;2023-06-14T10:47:01;691.20;2432.00
55016;DHT22;40919;43.236;21.590;2023-06-14T10:49:46;691.20;2432.00
55016;DHT22;40919;43.236;21.590;2023-06-14T10:52:15;691.30;2432.00
55016;DHT22;40919;43.236;21.590;2023-06-14T10:57:34;666.30;2432.00
55016;DHT22;40919;43.236;21.590;2023-06-14T11:00:02;691.40;2432.00
55016;DHT22;40919;43.236;21.590;2023-06-14T11:10:55;691.40;2432.00
55016;DHT22;40919;43.236;21.590;2023-06-14T11:13:25;691.20;2432.00
55016;DHT22;40919;43.236;21.590;2023-06-14T11:15:51;666.50;2432.00
55016;DHT22;40919;43.236;21.590;2023-06-14T11:18:23;666.20;2432.00
55016;DHT22;40919;43.236;21.590;2023-06-14T11:20:53;666.10;2432.00
55016;DHT22;40919;43.236;21.590;2023-06-14T11:23:20;666.00;2432.00
55016;DHT22;40919;43.236;21.590;2023-06-14T11:25:53;665.90;2432.00
55016;DHT22;40919;43.236;21.590;2023-06-14T11:28:18;665.60;2432.00
55016;DHT22;40919;43.236;21.590;2023-06-14T11:30:59;665.60;2432.00
55016;DHT22;40919;43.236;21.590;2023-06-14T11:33:25;666.10;2432.00
55016;DHT22;40919;43.236;21.590;2023-06-14T11:35:51;666.30;2432.00
55016;DHT22;40919;43.236;21.590;2023-06-14T11:38:17;666.50;2432.00
55016;DHT22;40919;43.236;21.590;2023-06-14T11:40:43;666.50;2432.00
55016;DHT22;40919;43.236;21.590;2023-06-14T11:43:09;666.30;2432.00
55016;DHT22;40919;43.236;21.590;2023-06-14T11:45:35;666.30;2432.00
55016;DHT22;40919;43.236;21.590;2023-06-14T11:48:01;666.30;2432.00
55016;DHT22;40919;43.236;21.590;2023-06-14T11:50:27;666.30;2432.00
55016;DHT22;40919;43.236;21.590;2023-06-14T11:52:58;666.10;2432.00
55016;DHT22;40919;43.236;21.590;2023-06-14T11:55:25;666.00;2432.00
55016;DHT22;40919;43.236;21.590;2023-06-14T11:57:53;665.80;2432.00
55016;DHT22;40919;43.236;21.590;2023-06-14T12:00:24;665.70;2432.00
55016;DHT22;40919;43.236;21.590;2023-06-14T12:02:54;665.70;2432.00
55016;DHT22;40919;43.236;21.590;2023-06-14T12:05:21;665.70;2432.00
55016;DHT22;40919;43.236;21.590;2023-06-14T12:07:48;665.90;2432.00
55016;DHT22;40919;43.236;21.590;2023-06-14T12:10:14;666.00;2432.00
55016;DHT22;40919;43.236;21.590;2023-06-14T12:12:41;666.10;2432.00
55016;DHT22;40919;43.236;21.590;2023-06-14T12:15:08;665.90;2432.00
55016;DHT22;40919;43.236;21.590;2023-06-14T12:17:38;640.90;2432.00
55016;DHT22;40919;43.236;21.590;2023-06-14T12:20:14;666.00;2432.00
55016;DHT22;40919;43.236;21.590;2023-06-14T12:22:51;666.10;2432.00
55016;DHT22;40919;43.236;21.590;2023-06-14T12:25:32;666.20;2432.00
55016;DHT22;40919;43.236;21.590;2023-06-14T12:28:08;666.30;2432.00
55016;DHT22;40919;43.236;21.590;2023-06-14T12:30:35;691.20;2432.00
55016;DHT22;40919;43.236;21.590;2023-06-14T12:33:02;691.50;2432.00
55016;DHT22;40919;43.236;21.590;2023-06-14T12:35:28;691.30;2432.00
55016;DHT22;40919;43.236;21.590;2023-06-14T12:37:54;691.40;2432.00
55016;DHT22;40919;43.236;21.590;2023-06-14T12:40:20;691.60;2432.00
55016;DHT22;40919;43.236;21.590;2023-06-14T12:42:46;691.70;2432.00
55016;DHT22;40919;43.236;21.590;2023-06-14T12:45:15;691.40;2432.00
55016;DHT22;40919;43.236;21.590;2023-06-14T12:47:41;666.50;2432.00
55016;DHT22;40919;43.236;21.590;2023-06-14T12:50:08;666.30;2432.00
55016;DHT22;40919;43.236;21.590;2023-06-14T12:52:33;666.40;2432.00
55016;DHT22;40919;43.236;21.590;2023-06-14T12:55:05;666.50;2432.00
55016;DHT22;40919;43.236;21.590;2023-06-14T12:57:32;666.50;2432.00
55016;DHT22;40919;43.236;21.590;2023-06-14T13:00:00;691.20;2432.00
55016;DHT22;40919;43.236;21.590;2023-06-14T13:02:25;691.30;2432.00
55016;DHT22;40919;43.236;21.590;2023-06-14T13:04:52;691.80;2432.00
55016;DHT22;40919;43.236;21.590;2023-06-14T13:07:18;716.90;2432.00
55016;DHT22;40919;43.236;21.590;2023-06-14T13:09:43;717.20;2432.00
55016;DHT22;40919;43.236;21.590;2023-06-14T13:12:12;717.50;2432.00
55016;DHT22;40919;43.236;21.590;2023-06-14T13:14:40;717.30;2432.00
55016;DHT22;40919;43.236;21.590;2023-06-14T13:17:09;717.10;2432.00
55016;DHT22;40919;43.236;21.590;2023-06-14T13:19:35;692.00;2432.00
55016;DHT22;40919;43.236;21.590;2023-06-14T13:22:02;691.90;2406.40
55016;DHT22;40919;43.236;21.590;2023-06-14T13:24:28;691.80;2380.80
55016;DHT22;40919;43.236;21.590;2023-06-14T13:26:55;691.40;2432.00
55016;DHT22;40919;43.236;21.590;2023-06-14T13:29:21;666.50;2432.00
55016;DHT22;40919;43.236;21.590;2023-06-14T13:31:47;666.30;2432.00
55016;DHT22;40919;43.236;21.590;2023-06-14T13:34:12;666.10;2432.00
55016;DHT22;40919;43.236;21.590;2023-06-14T13:36:39;666.10;2432.00
55016;DHT22;40919;43.236;21.590;2023-06-14T13:39:05;666.20;2432.00
55016;DHT22;40919;43.236;21.590;2023-06-14T13:41:31;666.10;2432.00
55016;DHT22;40919;43.236;21.590;2023-06-14T13:43:59;666.00;2432.00
55016;DHT22;40919;43.236;21.590;2023-06-14T13:46:25;665.90;2432.00
55016;DHT22;40919;43.236;21.590;2023-06-14T13:48:51;665.70;2432.00
55016;DHT22;40919;43.236;21.590;2023-06-14T13:51:17;665.70;2432.00
55016;DHT22;40919;43.236;21.590;2023-06-14T13:53:51;665.70;2432.00
55016;DHT22;40919;43.236;21.590;2023-06-14T13:56:18;640.80;2432.00
55016;DHT22;40919;43.236;21.590;2023-06-14T13:58:44;640.60;2432.00
55016;DHT22;40919;43.236;21.590;2023-06-14T14:01:10;640.40;2432.00
55016;DHT22;40919;43.236;21.590;2023-06-14T14:03:37;640.20;2432.00
55016;DHT22;40919;43.236;21.590;2023-06-14T14:06:03;640.10;2432.00
55016;DHT22;40919;43.236;21.590;2023-06-14T14:08:29;615.30;2432.00
55016;DHT22;40919;43.236;21.590;2023-06-14T14:10:56;615.30;2432.00
55016;DHT22;40919;43.236;21.590;2023-06-14T14:13:22;615.20;2432.00
55016;DHT22;40919;43.236;21.590;2023-06-14T14:15:48;615.20;2432.00
55016;DHT22;40919;43.236;21.590;2023-06-14T14:18:14;615.20;2432.00
55016;DHT22;40919;43.236;21.590;2023-06-14T14:20:41;615.10;2432.00
55016;DHT22;40919;43.236;21.590;2023-06-14T14:23:06;615.00;2432.00
55016;DHT22;40919;43.236;21.590;2023-06-14T14:25:32;615.00;2432.00
55016;DHT22;40919;43.236;21.590;2023-06-14T14:27:58;614.90;2432.00
55016;DHT22;40919;43.236;21.590;2023-06-14T14:30:24;614.80;2432.00
55016;DHT22;40919;43.236;21.590;2023-06-14T14:32:50;614.70;2432.00
55016;DHT22;40919;43.236;21.590;2023-06-14T14:35:17;614.80;2432.00
55016;DHT22;40919;43.236;21.590;2023-06-14T14:37:43;614.70;2432.00
55016;DHT22;40919;43.236;21.590;2023-06-14T14:40:09;614.50;2432.00
55016;DHT22;40919;43.236;21.590;2023-06-14T14:42:36;614.40;2432.00
55016;DHT22;40919;43.236;21.590;2023-06-14T14:45:02;589.70;2432.00
55016;DHT22;40919;43.236;21.590;2023-06-14T14:47:28;589.70;2432.00
55016;DHT22;40919;43.236;21.590;2023-06-14T14:49:55;589.50;2432.00
55016;DHT22;40919;43.236;21.590;2023-06-14T14:52:21;589.40;2432.00
55016;DHT22;40919;43.236;21.590;2023-06-14T14:54:47;589.30;2432.00
55016;DHT22;40919;43.236;21.590;2023-06-14T14:57:12;589.20;2432.00
55016;DHT22;40919;43.236;21.590;2023-06-14T14:59:38;589.10;2432.00
55016;DHT22;40919;43.236;21.590;2023-06-14T15:02:04;589.10;2432.00
55016;DHT22;40919;43.236;21.590;2023-06-14T15:04:30;589.00;2432.00